Boissevain, Canada
Current Conditions -  °F | °C
As of 10:55 AM on Friday 28 Nov 2014 (Local Time) from K06D Reporting Station
Overcast Overcast  
Wind Chill: -11°   Ceiling: 500
Heat Index:   Visibility: 10mi
Dew Point:   Wind: 16mph
Humidity: 92%   Direction: 120°ESE
Pressure: 29.81"   Gusts: NA
Location:  49.23°N, 100.05°W
Report Text: K06D 281655Z AUTO 12014KT 10SM BKN005 OVC032 M14/M15 A2981 RMK AO2
Loading
Personal Weather Stations






























Interactive Weather Map New forecast layout! Learn more

10-Day Weather Forecast

Advertisements
Track Severe Weather on mobile